createdAt,value
2022-12-24T00:00:08.332Z,2.00
2022-12-24T00:02:35.068Z,2.50
2022-12-24T00:05:01.860Z,2.15
2022-12-24T00:07:29.950Z,2.00
2022-12-24T00:09:56.519Z,2.47
2022-12-24T00:12:23.105Z,2.25
2022-12-24T00:14:49.638Z,2.22
2022-12-24T00:17:16.201Z,1.67
2022-12-24T00:19:43.397Z,2.08
2022-12-24T00:22:10.236Z,2.55
2022-12-24T00:24:36.806Z,2.28
2022-12-24T00:27:03.690Z,2.03
2022-12-24T00:29:30.255Z,1.98
2022-12-24T00:31:56.804Z,2.33
2022-12-24T00:34:24.579Z,1.80
2022-12-24T00:36:51.328Z,2.10
2022-12-24T00:39:18.282Z,2.00
2022-12-24T00:41:44.892Z,1.75
2022-12-24T00:44:11.910Z,1.85
2022-12-24T00:46:41.296Z,1.65
2022-12-24T00:49:08.992Z,2.63
2022-12-24T00:51:37.026Z,1.75
2022-12-24T00:54:04.089Z,2.00
2022-12-24T00:56:30.687Z,2.35
2022-12-24T00:58:57.250Z,2.15
2022-12-24T01:01:27.273Z,2.15
2022-12-24T01:04:14.325Z,2.42
2022-12-24T01:06:41.152Z,2.10
2022-12-24T01:09:07.935Z,2.05
2022-12-24T01:11:34.562Z,1.92
2022-12-24T01:14:01.275Z,2.00
2022-12-24T01:16:28.062Z,2.53
2022-12-24T01:18:54.695Z,2.30
2022-12-24T01:21:21.257Z,2.40
2022-12-24T01:23:47.868Z,2.00
2022-12-24T01:26:14.758Z,2.55
2022-12-24T01:28:42.075Z,2.30
2022-12-24T01:31:16.240Z,2.20
2022-12-24T01:33:43.217Z,2.53
2022-12-24T01:36:11.006Z,1.80
2022-12-24T01:38:37.674Z,1.90
2022-12-24T01:41:23.079Z,2.45
2022-12-24T01:43:49.813Z,2.22
2022-12-24T01:46:25.365Z,1.63
2022-12-24T01:49:04.372Z,2.25
2022-12-24T01:51:37.566Z,2.22
2022-12-24T01:54:09.898Z,2.28
2022-12-24T01:56:43.371Z,2.20
2022-12-24T01:59:14.856Z,1.60
2022-12-24T02:01:41.683Z,1.83
2022-12-24T02:04:30.597Z,2.33
2022-12-24T02:06:59.447Z,1.80
2022-12-24T02:09:26.926Z,2.20
2022-12-24T02:11:53.631Z,2.47
2022-12-24T02:14:20.957Z,2.40
2022-12-24T02:17:12.416Z,2.30
2022-12-24T02:20:31.765Z,2.33
2022-12-24T02:23:18.299Z,2.00
2022-12-24T02:25:58.226Z,1.77
2022-12-24T02:29:01.531Z,2.20
2022-12-24T02:31:38.996Z,2.50
2022-12-24T02:34:31.625Z,2.08
2022-12-24T02:37:04.837Z,2.65
2022-12-24T02:39:43.450Z,1.75
2022-12-24T02:42:12.986Z,2.47
2022-12-24T02:44:57.788Z,1.92
2022-12-24T02:47:27.447Z,2.40
2022-12-24T02:49:54.335Z,1.92
2022-12-24T02:52:31.397Z,2.40
2022-12-24T02:55:01.630Z,1.90
2022-12-24T02:57:33.935Z,2.35
2022-12-24T03:00:07.522Z,2.28
2022-12-24T03:03:03.373Z,2.35
2022-12-24T03:05:42.246Z,1.90
2022-12-24T03:08:43.571Z,2.65
2022-12-24T03:11:13.861Z,2.53
2022-12-24T03:13:41.709Z,2.20
2022-12-24T03:16:12.171Z,2.20
2022-12-24T03:18:42.348Z,2.22
2022-12-24T03:21:26.389Z,2.67
2022-12-24T03:23:52.954Z,2.67
2022-12-24T03:26:20.463Z,2.40
2022-12-24T03:28:47.985Z,2.70
2022-12-24T03:31:14.661Z,2.20
2022-12-24T03:33:41.541Z,2.00
2022-12-24T03:36:09.406Z,2.67
2022-12-24T03:38:36.219Z,2.10
2022-12-24T03:41:03.669Z,2.58
2022-12-24T03:43:30.324Z,2.10
2022-12-24T03:45:56.906Z,2.30
2022-12-24T03:48:27.510Z,2.67
2022-12-24T03:50:59.039Z,2.17
2022-12-24T03:53:25.635Z,2.33
2022-12-24T03:55:54.244Z,1.58
2022-12-24T03:58:21.082Z,2.00
2022-12-24T04:00:47.590Z,1.98
2022-12-24T04:03:14.263Z,1.75
2022-12-24T04:05:40.971Z,2.28
2022-12-24T04:08:07.447Z,1.80
2022-12-24T04:10:34.004Z,2.53
2022-12-24T04:13:00.511Z,1.70
2022-12-24T04:15:27.339Z,2.05
2022-12-24T04:17:53.863Z,1.67
2022-12-24T04:20:20.420Z,1.90
2022-12-24T04:22:47.034Z,1.98
2022-12-24T04:25:13.592Z,1.83
2022-12-24T04:27:40.293Z,1.92
2022-12-24T04:30:07.432Z,1.77
2022-12-24T04:32:33.947Z,2.15
2022-12-24T04:35:00.572Z,1.77
2022-12-24T04:37:27.102Z,1.95
2022-12-24T04:39:53.620Z,2.15
2022-12-24T04:42:20.214Z,2.40
2022-12-24T04:44:46.796Z,2.05
2022-12-24T04:47:13.320Z,2.00
2022-12-24T04:49:39.841Z,2.03
2022-12-24T04:52:06.421Z,2.78
2022-12-24T04:54:32.979Z,2.33
2022-12-24T04:56:59.768Z,2.28
2022-12-24T04:59:26.348Z,1.95
2022-12-24T05:01:53.161Z,2.40
2022-12-24T05:04:19.761Z,2.10
2022-12-24T05:06:46.328Z,2.28
2022-12-24T05:09:13.299Z,2.05
2022-12-24T05:11:40.028Z,2.20
2022-12-24T05:14:06.611Z,2.03
2022-12-24T05:16:33.371Z,2.40
2022-12-24T05:18:59.999Z,2.70
2022-12-24T05:21:26.718Z,2.25
2022-12-24T05:24:12.464Z,2.15
2022-12-24T05:26:39.021Z,1.98
2022-12-24T05:29:07.550Z,1.90
2022-12-24T05:31:34.650Z,2.28
2022-12-24T05:34:03.186Z,2.17
2022-12-24T05:36:31.071Z,2.55
2022-12-24T05:38:58.436Z,2.60
2022-12-24T05:41:25.692Z,1.88
2022-12-24T05:43:52.408Z,2.33
2022-12-24T05:46:21.118Z,1.90
2022-12-24T05:48:48.839Z,2.20
2022-12-24T05:51:19.533Z,2.25
2022-12-24T05:53:47.071Z,2.83
2022-12-24T05:56:16.997Z,2.13
2022-12-24T05:58:44.129Z,2.08
2022-12-24T06:01:11.810Z,2.20
2022-12-24T06:03:38.858Z,2.10
2022-12-24T06:06:08.332Z,2.70
2022-12-24T06:08:35.830Z,2.38
2022-12-24T06:11:05.888Z,2.25
2022-12-24T06:13:33.825Z,1.85
2022-12-24T06:16:02.271Z,1.77
2022-12-24T06:18:33.108Z,2.53
2022-12-24T06:20:59.866Z,2.50
2022-12-24T06:23:29.528Z,2.10
2022-12-24T06:25:58.203Z,2.53
2022-12-24T06:28:25.339Z,2.85
2022-12-24T06:30:54.640Z,1.83
2022-12-24T06:33:24.058Z,1.95
2022-12-24T06:35:50.619Z,2.38
2022-12-24T06:38:17.138Z,2.03
2022-12-24T06:40:45.749Z,2.13
2022-12-24T06:43:13.914Z,2.55
2022-12-24T06:45:44.281Z,1.77
2022-12-24T06:48:10.984Z,2.20
2022-12-24T06:50:37.822Z,2.45
2022-12-24T06:53:04.322Z,3.08
2022-12-24T06:55:30.953Z,2.55
2022-12-24T06:57:57.550Z,2.67
2022-12-24T07:00:24.334Z,2.65
2022-12-24T07:02:51.060Z,2.72
2022-12-24T07:05:18.064Z,2.83
2022-12-24T07:07:45.621Z,3.13
2022-12-24T07:10:15.336Z,2.85
2022-12-24T07:12:42.664Z,2.90
2022-12-24T07:15:10.821Z,3.25
2022-12-24T07:17:37.527Z,2.78
2022-12-24T07:20:05.252Z,2.53
2022-12-24T07:22:32.079Z,3.65
2022-12-24T07:24:58.668Z,3.10
2022-12-24T07:27:25.305Z,2.85
2022-12-24T07:29:51.815Z,2.88
2022-12-24T07:32:20.403Z,2.88
2022-12-24T07:34:47.242Z,2.67
2022-12-24T07:37:14.395Z,3.13
2022-12-24T07:39:41.009Z,3.10
2022-12-24T07:42:08.520Z,4.63
2022-12-24T07:44:35.386Z,3.95
2022-12-24T07:47:02.145Z,3.22
2022-12-24T07:49:28.994Z,3.55
2022-12-24T07:51:55.535Z,2.80
2022-12-24T07:54:22.303Z,3.05
2022-12-24T07:56:48.931Z,3.47
2022-12-24T07:59:15.742Z,2.83
2022-12-24T08:01:43.073Z,3.38
2022-12-24T08:04:09.915Z,3.20
2022-12-24T08:06:36.664Z,3.63
2022-12-24T08:09:03.537Z,3.78
2022-12-24T08:11:30.170Z,4.18
2022-12-24T08:13:56.819Z,3.60
2022-12-24T08:16:23.465Z,3.58
2022-12-24T08:18:50.055Z,3.53
2022-12-24T08:21:16.752Z,3.85
2022-12-24T08:23:46.350Z,3.47
2022-12-24T08:26:13.376Z,3.90
2022-12-24T08:28:39.983Z,4.05
2022-12-24T08:31:06.627Z,3.40
2022-12-24T08:33:33.252Z,3.53
2022-12-24T08:36:01.439Z,4.00
2022-12-24T08:38:29.891Z,3.55
2022-12-24T08:40:56.511Z,3.25
2022-12-24T08:43:23.138Z,3.83
2022-12-24T08:45:50.100Z,4.63
2022-12-24T08:48:17.560Z,4.10
2022-12-24T08:50:44.727Z,3.67
2022-12-24T08:53:11.933Z,4.15
2022-12-24T08:55:39.629Z,4.35
2022-12-24T08:58:06.246Z,3.97
2022-12-24T09:00:32.749Z,4.22
2022-12-24T09:03:00.800Z,3.65
2022-12-24T09:05:27.548Z,4.35
2022-12-24T09:07:54.221Z,4.00
2022-12-24T09:10:21.254Z,4.55
2022-12-24T09:12:47.883Z,5.40
2022-12-24T09:15:14.747Z,4.55
2022-12-24T09:17:41.462Z,4.40
2022-12-24T09:20:09.325Z,4.22
2022-12-24T09:22:38.040Z,4.35
2022-12-24T09:25:06.257Z,4.40
2022-12-24T09:27:32.799Z,3.60
2022-12-24T09:29:59.427Z,3.90
2022-12-24T09:32:25.942Z,4.13
2022-12-24T09:34:52.528Z,4.45
2022-12-24T09:37:19.478Z,4.70
2022-12-24T09:39:46.003Z,4.35
2022-12-24T09:42:45.538Z,5.38
2022-12-24T09:45:29.503Z,4.40
2022-12-24T09:48:04.201Z,4.20
2022-12-24T09:50:46.295Z,4.47
2022-12-24T09:53:20.843Z,4.35
2022-12-24T09:55:52.998Z,4.75
2022-12-24T09:58:27.480Z,5.03
2022-12-24T10:00:56.167Z,4.88
2022-12-24T10:03:23.189Z,5.65
2022-12-24T10:06:00.773Z,5.53
2022-12-24T10:08:36.806Z,4.75
2022-12-24T10:11:45.166Z,4.25
2022-12-24T10:14:34.602Z,4.80
2022-12-24T10:17:18.523Z,4.32
2022-12-24T10:20:13.831Z,5.38
2022-12-24T10:23:04.844Z,5.45
2022-12-24T10:25:43.064Z,5.43
2022-12-24T10:28:16.996Z,5.72
2022-12-24T10:30:48.324Z,6.53
2022-12-24T10:33:20.241Z,5.30
2022-12-24T10:35:51.942Z,5.47
2022-12-24T10:38:18.486Z,4.50
2022-12-24T10:40:48.704Z,5.15
2022-12-24T10:43:21.059Z,5.90
2022-12-24T10:45:50.943Z,5.13
2022-12-24T10:48:30.367Z,5.90
2022-12-24T10:51:02.793Z,5.55
2022-12-24T10:53:44.280Z,5.40
2022-12-24T10:56:14.101Z,4.57
2022-12-24T10:58:45.545Z,4.45
2022-12-24T11:01:13.355Z,4.88
2022-12-24T11:03:40.105Z,4.80
2022-12-24T11:06:09.492Z,4.65
2022-12-24T11:08:39.506Z,5.07
2022-12-24T11:11:13.321Z,5.55
2022-12-24T11:13:41.460Z,5.22
2022-12-24T11:16:29.953Z,4.78
2022-12-24T11:18:58.912Z,4.68
2022-12-24T11:21:25.408Z,4.65
2022-12-24T11:23:56.056Z,5.20
2022-12-24T11:29:19.424Z,4.78
2022-12-24T11:31:47.200Z,4.60
2022-12-24T11:34:24.598Z,4.75
2022-12-24T11:36:53.277Z,4.13
2022-12-24T11:39:23.368Z,4.90
2022-12-24T11:41:53.820Z,4.10
2022-12-24T11:44:26.688Z,3.33
2022-12-24T11:46:57.178Z,4.47
2022-12-24T11:52:22.254Z,3.58
2022-12-24T11:54:57.557Z,3.63
2022-12-24T11:57:40.590Z,4.20
2022-12-24T12:00:11.115Z,3.92
2022-12-24T12:02:41.428Z,3.75
2022-12-24T12:05:38.598Z,3.22
2022-12-24T12:08:18.253Z,3.90
2022-12-24T12:10:46.844Z,3.40
2022-12-24T12:13:17.704Z,4.15
2022-12-24T12:15:50.900Z,3.40
2022-12-24T12:18:28.774Z,4.38
2022-12-24T12:21:06.480Z,3.50
2022-12-24T12:23:44.641Z,3.80
2022-12-24T12:26:18.910Z,3.63
2022-12-24T12:28:57.940Z,3.85
2022-12-24T12:31:36.926Z,3.67
2022-12-24T12:34:13.235Z,3.67
2022-12-24T12:36:41.920Z,3.63
2022-12-24T12:39:10.801Z,4.32
2022-12-24T12:42:05.549Z,3.35
2022-12-24T12:44:45.854Z,3.40
2022-12-24T12:47:30.578Z,3.53
2022-12-24T12:50:28.187Z,3.05
2022-12-24T12:53:24.260Z,3.25
2022-12-24T12:56:24.966Z,2.95
2022-12-24T13:02:01.670Z,3.58
2022-12-24T13:04:50.928Z,3.38
2022-12-24T13:07:51.154Z,3.67
2022-12-24T13:10:48.670Z,4.43
2022-12-24T13:13:33.461Z,3.25
2022-12-24T13:16:09.843Z,3.53
2022-12-24T13:18:58.225Z,3.85
2022-12-24T13:21:28.358Z,3.53
2022-12-24T13:24:13.960Z,3.63
2022-12-24T13:26:40.928Z,4.57
2022-12-24T13:29:35.319Z,4.25
2022-12-24T13:32:33.806Z,4.25
2022-12-24T13:35:00.288Z,4.80
2022-12-24T13:37:29.445Z,5.65
2022-12-24T13:40:08.605Z,4.57
2022-12-24T13:42:53.900Z,3.92
2022-12-24T13:45:52.668Z,4.32
2022-12-24T13:48:30.285Z,3.95
2022-12-24T13:51:00.839Z,3.92
2022-12-24T13:53:32.745Z,3.60
2022-12-24T13:56:20.967Z,3.88
2022-12-24T13:58:51.268Z,4.20
2022-12-24T14:01:33.330Z,3.88
2022-12-24T14:04:05.278Z,3.80
2022-12-24T14:06:35.703Z,3.80
2022-12-24T14:09:25.010Z,3.30
2022-12-24T14:12:03.626Z,4.00
2022-12-24T14:14:34.663Z,3.75
2022-12-24T14:17:20.505Z,5.25
2022-12-24T14:19:53.967Z,3.80
2022-12-24T14:22:28.686Z,3.85
2022-12-24T14:25:02.362Z,3.55
2022-12-24T14:27:38.940Z,4.10
2022-12-24T14:30:21.954Z,3.10
2022-12-24T14:32:50.627Z,3.55
2022-12-24T14:35:21.651Z,5.28
2022-12-24T14:38:01.133Z,3.42
2022-12-24T14:40:34.043Z,3.33
2022-12-24T14:43:26.529Z,4.55
2022-12-24T14:46:21.178Z,3.80
2022-12-24T14:49:00.861Z,4.28
2022-12-24T14:52:18.414Z,4.15
2022-12-24T14:54:54.966Z,4.30
2022-12-24T14:57:24.654Z,4.35
2022-12-24T15:00:02.390Z,5.13
2022-12-24T15:02:41.238Z,4.45
2022-12-24T15:05:09.870Z,4.30
2022-12-24T15:07:45.525Z,4.65
2022-12-24T15:10:29.004Z,5.00
2022-12-24T15:13:01.293Z,4.05
2022-12-24T15:15:28.017Z,4.80
2022-12-24T15:17:55.998Z,4.38
2022-12-24T15:20:25.634Z,4.70
2022-12-24T15:22:54.859Z,4.53
2022-12-24T15:25:31.665Z,5.32
2022-12-24T15:27:58.501Z,5.80
2022-12-24T15:30:29.278Z,5.22
2022-12-24T15:32:57.895Z,6.13
2022-12-24T15:35:35.385Z,6.68
2022-12-24T15:38:04.116Z,5.03
2022-12-24T15:40:33.185Z,5.32
2022-12-24T15:43:00.050Z,5.78
2022-12-24T15:45:32.254Z,5.25
2022-12-24T15:48:06.716Z,4.90
2022-12-24T15:50:36.579Z,4.07
2022-12-24T15:53:20.944Z,4.32
2022-12-24T15:56:27.216Z,4.40
2022-12-24T15:59:13.737Z,4.18
2022-12-24T16:01:40.565Z,4.05
2022-12-24T16:04:24.815Z,3.75
2022-12-24T16:07:01.797Z,4.22
2022-12-24T16:09:31.083Z,4.57
2022-12-24T16:12:02.942Z,4.35
2022-12-24T16:14:33.234Z,4.15
2022-12-24T16:16:59.852Z,4.80
2022-12-24T16:19:35.874Z,4.72
2022-12-24T16:22:24.566Z,3.70
2022-12-24T16:24:52.616Z,4.82
2022-12-24T16:27:19.200Z,4.68
2022-12-24T16:29:47.003Z,4.30
2022-12-24T16:32:36.544Z,4.78
2022-12-24T16:35:05.441Z,5.03
2022-12-24T16:37:32.018Z,4.90
2022-12-24T16:39:59.122Z,4.55
2022-12-24T16:42:46.009Z,6.15
2022-12-24T16:45:12.615Z,5.60
2022-12-24T16:47:43.225Z,5.70
2022-12-24T16:50:15.949Z,5.88
2022-12-24T16:52:42.452Z,7.10
2022-12-24T16:55:12.547Z,7.15
2022-12-24T16:57:40.561Z,6.90
2022-12-24T17:00:18.161Z,6.20
2022-12-24T17:02:45.090Z,6.47
2022-12-24T17:05:14.023Z,17.50
2022-12-24T17:07:43.775Z,7.10
2022-12-24T17:10:12.858Z,5.75
2022-12-24T17:12:39.644Z,6.10
2022-12-24T17:15:06.764Z,5.25
2022-12-24T17:17:33.712Z,5.18
2022-12-24T17:20:00.389Z,5.68
2022-12-24T17:22:29.693Z,5.07
2022-12-24T17:24:56.692Z,5.30
2022-12-24T17:27:23.640Z,6.72
2022-12-24T17:29:50.513Z,5.82
2022-12-24T17:32:17.138Z,7.55
2022-12-24T17:34:43.735Z,9.13
2022-12-24T17:37:10.550Z,9.30
2022-12-24T17:39:37.202Z,8.27
2022-12-24T17:42:04.243Z,7.07
2022-12-24T17:44:30.808Z,5.55
2022-12-24T17:46:57.405Z,8.93
2022-12-24T17:49:24.045Z,9.40
2022-12-24T17:51:50.628Z,7.20
2022-12-24T17:54:17.281Z,6.45
2022-12-24T17:56:43.960Z,6.28
2022-12-24T17:59:10.979Z,5.70
2022-12-24T18:01:37.644Z,5.07
2022-12-24T18:04:05.663Z,5.32
2022-12-24T18:06:32.659Z,4.88
2022-12-24T18:08:59.221Z,4.82
2022-12-24T18:11:29.351Z,4.63
2022-12-24T18:13:57.360Z,4.60
2022-12-24T18:16:28.062Z,4.10
2022-12-24T18:21:24.340Z,5.10
2022-12-24T18:23:52.122Z,4.85
2022-12-24T18:26:20.170Z,4.45
2022-12-24T18:28:47.521Z,4.85
2022-12-24T18:31:16.681Z,4.75
2022-12-24T18:33:45.819Z,4.80
2022-12-24T18:36:13.575Z,5.55
2022-12-24T18:38:41.016Z,6.10
2022-12-24T18:41:13.808Z,6.35
2022-12-24T18:43:41.495Z,5.70
2022-12-24T18:46:16.455Z,6.15
2022-12-24T18:48:43.278Z,5.55
2022-12-24T18:51:11.069Z,5.40
2022-12-24T18:53:38.490Z,5.25
2022-12-24T18:56:19.256Z,5.20
2022-12-24T19:01:24.868Z,4.80
2022-12-24T19:03:52.420Z,5.03
2022-12-24T19:06:20.005Z,4.50
2022-12-24T19:09:02.860Z,5.07
2022-12-24T19:11:32.548Z,5.10
2022-12-24T19:14:00.420Z,5.30
2022-12-24T19:16:28.719Z,5.07
2022-12-24T19:18:55.970Z,5.07
2022-12-24T19:21:22.633Z,6.07
2022-12-24T19:23:49.526Z,6.18
2022-12-24T19:26:17.746Z,6.53
2022-12-24T19:28:45.337Z,7.00
2022-12-24T19:31:15.021Z,7.05
2022-12-24T19:33:44.247Z,6.73
2022-12-24T19:36:18.851Z,6.63
2022-12-24T19:38:46.178Z,7.28
2022-12-24T19:41:15.211Z,9.13
2022-12-24T19:43:44.645Z,9.65
2022-12-24T19:46:14.609Z,14.43
2022-12-24T19:48:42.728Z,12.57
2022-12-24T19:51:11.976Z,11.85
2022-12-24T19:53:39.277Z,10.10
2022-12-24T19:56:06.916Z,8.85
2022-12-24T19:58:33.713Z,8.20
2022-12-24T20:01:15.615Z,8.35
2022-12-24T20:03:43.400Z,9.93
2022-12-24T20:06:10.379Z,7.93
2022-12-24T20:08:38.431Z,7.13
2022-12-24T20:11:11.251Z,7.65
2022-12-24T20:13:39.136Z,7.13
2022-12-24T20:16:11.267Z,7.13
2022-12-24T20:18:38.207Z,7.53
2022-12-24T20:21:07.920Z,6.40
2022-12-24T20:23:37.392Z,7.33
2022-12-24T20:26:05.285Z,7.38
2022-12-24T20:28:33.524Z,6.75
2022-12-24T20:31:00.233Z,7.35
2022-12-24T20:33:27.149Z,6.95
2022-12-24T20:35:53.624Z,6.93
2022-12-24T20:38:20.161Z,6.60
2022-12-24T20:40:46.903Z,6.38
2022-12-24T20:43:13.450Z,6.63
2022-12-24T20:45:40.924Z,6.22
2022-12-24T20:48:07.741Z,8.05
2022-12-24T20:50:34.293Z,6.43
2022-12-24T20:53:00.798Z,5.55
2022-12-24T20:55:27.512Z,6.00
2022-12-24T20:57:54.009Z,7.10
2022-12-24T21:00:21.149Z,7.05
2022-12-24T21:02:47.845Z,7.30
2022-12-24T21:05:14.884Z,7.70
2022-12-24T21:07:43.456Z,7.10
2022-12-24T21:10:12.426Z,7.05
2022-12-24T21:12:48.680Z,6.75
2022-12-24T21:15:17.320Z,7.55
2022-12-24T21:17:43.864Z,9.50
2022-12-24T21:20:11.189Z,7.78
2022-12-24T21:22:38.338Z,8.43
2022-12-24T21:25:05.809Z,7.72
2022-12-24T21:27:32.650Z,8.52
2022-12-24T21:29:59.477Z,7.60
2022-12-24T21:32:26.449Z,8.40
2022-12-24T21:34:52.997Z,8.75
2022-12-24T21:37:20.555Z,7.53
2022-12-24T21:39:48.051Z,7.65
2022-12-24T21:42:14.786Z,8.35
2022-12-24T21:44:41.358Z,8.68
2022-12-24T21:47:07.982Z,7.90
2022-12-24T21:49:52.746Z,8.18
2022-12-24T21:52:19.273Z,7.95
2022-12-24T21:54:45.759Z,8.63
2022-12-24T21:57:30.770Z,7.63
2022-12-24T22:00:21.297Z,10.73
2022-12-24T22:02:54.182Z,8.60
2022-12-24T22:05:21.386Z,8.25
2022-12-24T22:08:06.507Z,8.40
2022-12-24T22:10:52.115Z,8.32
2022-12-24T22:13:19.008Z,8.35
2022-12-24T22:15:51.350Z,8.82
2022-12-24T22:18:20.744Z,9.35
2022-12-24T22:20:48.125Z,9.05
2022-12-24T22:23:15.459Z,8.27
2022-12-24T22:25:43.802Z,8.25
2022-12-24T22:28:10.871Z,9.75
2022-12-24T22:30:42.368Z,10.43
2022-12-24T22:33:10.291Z,8.70
2022-12-24T22:35:39.544Z,10.27
2022-12-24T22:38:07.843Z,9.23
2022-12-24T22:40:34.403Z,9.60
2022-12-24T22:43:01.006Z,9.48
2022-12-24T22:45:28.850Z,9.07
2022-12-24T22:47:55.649Z,10.27
2022-12-24T22:50:22.468Z,9.90
2022-12-24T22:52:51.970Z,11.40
2022-12-24T22:55:18.601Z,9.80
2022-12-24T22:57:45.115Z,10.40
2022-12-24T23:00:17.013Z,10.35
2022-12-24T23:02:43.727Z,12.82
2022-12-24T23:05:14.860Z,10.20
2022-12-24T23:07:41.654Z,10.23
2022-12-24T23:10:08.712Z,10.05
2022-12-24T23:12:53.863Z,11.38
2022-12-24T23:15:20.450Z,10.70
2022-12-24T23:17:48.929Z,10.80
2022-12-24T23:20:17.852Z,10.18
2022-12-24T23:22:44.415Z,10.48
2022-12-24T23:25:10.899Z,10.18
2022-12-24T23:27:37.471Z,12.88
2022-12-24T23:30:04.730Z,11.45
2022-12-24T23:32:31.243Z,11.88
2022-12-24T23:34:57.725Z,11.10
2022-12-24T23:37:27.012Z,9.88
2022-12-24T23:39:57.646Z,10.43
2022-12-24T23:42:24.268Z,10.23
2022-12-24T23:44:51.468Z,9.73
2022-12-24T23:47:18.820Z,9.50
2022-12-24T23:49:45.381Z,9.77
2022-12-24T23:52:11.965Z,8.32
2022-12-24T23:54:38.576Z,9.15
2022-12-24T23:57:05.167Z,8.65
2022-12-24T23:59:35.246Z,9.38
